Terminal Aerodrome Forecast
Issued by NWS

Home | Current Version | Previous Version | Text Only | Print | Product List | Glossary On
Versions: 1 2 3 4 5 6 7 8 9 10 11 12 13 14 15 16 17 18 19 20 21 22 23 24 25
000
FTUS43 KGRR 210540
TAFAZO
TAF
KAZO 210540Z 2106/2206 32010KT P6SM -RA OVC009
     FM210700 32011KT 5SM -RASN BR OVC009
     FM211200 32010KT 5SM -SN OVC009
     FM211400 33010KT 5SM -SN OVC015
     FM211500 33010KT P6SM OVC019
     FM211900 34010KT P6SM SCT025 BKN040
     FM220000 01004KT P6SM BKN250=

USA.gov is the U.S. government's official web portal to all federal, state and local government web resources and services.